createdAt,value
2018-05-12T00:02:16.085Z,15.40
2018-05-12T00:04:43.545Z,15.40
2018-05-12T00:07:10.993Z,15.40
2018-05-12T00:09:38.450Z,15.40
2018-05-12T00:12:05.910Z,15.40
2018-05-12T00:14:33.362Z,15.30
2018-05-12T00:17:00.817Z,15.30
2018-05-12T00:19:28.278Z,15.30
2018-05-12T00:21:55.724Z,15.30
2018-05-12T00:24:23.174Z,15.30
2018-05-12T00:26:50.628Z,15.30
2018-05-12T00:29:18.121Z,15.30
2018-05-12T00:31:45.577Z,15.30
2018-05-12T00:34:13.023Z,15.30
2018-05-12T00:36:40.494Z,15.30
2018-05-12T00:39:07.938Z,15.30
2018-05-12T00:41:35.389Z,15.30
2018-05-12T00:44:02.843Z,15.30
2018-05-12T00:46:30.306Z,15.30
2018-05-12T00:48:57.752Z,15.30
2018-05-12T00:51:25.221Z,15.40
2018-05-12T00:53:52.685Z,15.40
2018-05-12T00:56:20.132Z,15.40
2018-05-12T00:58:47.588Z,15.40
2018-05-12T01:01:15.032Z,15.40
2018-05-12T01:03:42.495Z,15.40
2018-05-12T01:06:09.961Z,15.40
2018-05-12T01:08:37.410Z,15.40
2018-05-12T01:11:04.853Z,15.40
2018-05-12T01:13:32.319Z,15.40
2018-05-12T01:15:59.805Z,15.40
2018-05-12T01:18:28.035Z,15.40
2018-05-12T01:20:56.306Z,15.30
2018-05-12T01:23:23.757Z,15.40
2018-05-12T01:25:51.201Z,15.40
2018-05-12T01:28:18.653Z,15.40
2018-05-12T01:30:46.090Z,15.30
2018-05-12T01:33:14.314Z,15.30
2018-05-12T01:35:41.757Z,15.20
2018-05-12T01:38:09.215Z,15.20
2018-05-12T01:40:36.663Z,15.20
2018-05-12T01:43:04.123Z,15.20
2018-05-12T01:45:31.564Z,15.20
2018-05-12T01:47:59.018Z,15.30
2018-05-12T01:50:26.484Z,15.20
2018-05-12T01:52:53.934Z,15.20
2018-05-12T01:55:21.390Z,15.30
2018-05-12T01:57:48.834Z,15.30
2018-05-12T02:00:17.056Z,15.30
2018-05-12T02:02:44.518Z,15.30
2018-05-12T02:05:12.741Z,15.30
2018-05-12T02:07:40.958Z,15.30
2018-05-12T02:10:08.414Z,15.20
2018-05-12T02:12:35.916Z,15.30
2018-05-12T02:15:04.153Z,15.30
2018-05-12T02:17:31.632Z,15.30
2018-05-12T02:19:59.165Z,15.30
2018-05-12T02:22:26.616Z,15.30
2018-05-12T02:24:54.057Z,15.30
2018-05-12T02:27:21.518Z,15.30
2018-05-12T02:29:48.981Z,15.40
2018-05-12T02:32:16.432Z,15.40
2018-05-12T02:34:43.907Z,15.40
2018-05-12T02:37:11.366Z,15.30
2018-05-12T02:39:39.126Z,15.30
2018-05-12T02:42:06.570Z,15.30
2018-05-12T02:44:34.027Z,15.20
2018-05-12T02:47:01.484Z,15.30
2018-05-12T02:49:28.937Z,15.30
2018-05-12T02:51:56.400Z,15.20
2018-05-12T02:54:23.856Z,15.20
2018-05-12T02:56:51.422Z,15.10
2018-05-12T02:59:18.882Z,15.00
2018-05-12T03:01:46.346Z,14.90
2018-05-12T03:04:14.574Z,14.70
2018-05-12T03:06:42.802Z,14.60
2018-05-12T03:09:10.257Z,14.50
2018-05-12T03:11:37.714Z,14.50
2018-05-12T03:14:05.174Z,14.40
2018-05-12T03:16:32.629Z,14.30
2018-05-12T03:19:00.105Z,14.30
2018-05-12T03:21:27.558Z,14.20
2018-05-12T03:23:55.014Z,14.20
2018-05-12T03:26:22.460Z,14.10
2018-05-12T03:28:50.721Z,14.10
2018-05-12T03:31:18.177Z,14.10
2018-05-12T03:33:45.657Z,14.00
2018-05-12T03:36:13.103Z,14.00
2018-05-12T03:38:40.577Z,14.00
2018-05-12T03:41:08.037Z,14.00
2018-05-12T03:43:35.499Z,13.90
2018-05-12T03:46:02.949Z,13.90
2018-05-12T03:48:30.412Z,13.90
2018-05-12T03:50:57.843Z,13.90
2018-05-12T03:53:25.322Z,13.90
2018-05-12T03:55:52.786Z,13.80
2018-05-12T03:58:21.053Z,13.90
2018-05-12T04:00:48.510Z,13.80
2018-05-12T04:03:16.625Z,13.80
2018-05-12T04:05:56.059Z,13.80
2018-05-12T04:11:39.177Z,13.90
2018-05-12T04:14:06.642Z,13.90
2018-05-12T04:16:34.855Z,13.90
2018-05-12T04:19:02.314Z,13.80
2018-05-12T04:21:29.810Z,13.90
2018-05-12T04:23:57.271Z,13.90
2018-05-12T04:26:24.727Z,13.80
2018-05-12T04:28:52.180Z,13.80
2018-05-12T04:31:19.641Z,13.80
2018-05-12T04:33:47.085Z,13.80
2018-05-12T04:36:14.548Z,13.80
2018-05-12T04:38:42.002Z,13.80
2018-05-12T04:41:09.444Z,13.70
2018-05-12T04:43:36.896Z,13.80
2018-05-12T04:46:04.346Z,13.80
2018-05-12T04:48:31.895Z,13.80
2018-05-12T04:50:59.422Z,13.80
2018-05-12T04:53:27.630Z,13.90
2018-05-12T04:55:55.090Z,13.90
2018-05-12T04:58:22.540Z,13.90
2018-05-12T05:00:49.993Z,14.10
2018-05-12T05:03:17.437Z,14.10
2018-05-12T05:05:44.884Z,14.20
2018-05-12T05:08:13.141Z,14.30
2018-05-12T05:10:40.572Z,14.20
2018-05-12T05:13:08.791Z,14.40
2018-05-12T05:15:37.044Z,14.40
2018-05-12T05:18:04.523Z,14.40
2018-05-12T05:20:32.814Z,14.50
2018-05-12T05:23:00.245Z,14.40
2018-05-12T05:25:28.460Z,14.50
2018-05-12T05:27:55.912Z,14.50
2018-05-12T05:30:23.356Z,14.60
2018-05-12T05:32:50.822Z,14.60
2018-05-12T05:35:18.325Z,14.60
2018-05-12T05:37:45.730Z,14.70
2018-05-12T05:40:13.181Z,14.80
2018-05-12T05:42:41.397Z,14.90
2018-05-12T05:45:09.012Z,14.90
2018-05-12T05:47:37.220Z,15.00
2018-05-12T05:50:04.685Z,15.00
2018-05-12T05:52:32.220Z,15.10
2018-05-12T05:54:59.659Z,15.20
2018-05-12T05:57:27.090Z,15.20
2018-05-12T05:59:54.633Z,15.30
2018-05-12T06:02:22.057Z,15.40
2018-05-12T06:04:49.506Z,15.50
2018-05-12T06:07:16.946Z,15.60
2018-05-12T06:09:44.521Z,15.70
2018-05-12T06:12:11.982Z,15.70
2018-05-12T06:14:39.437Z,15.80
2018-05-12T06:17:06.886Z,15.80
2018-05-12T06:19:34.342Z,15.90
2018-05-12T06:22:01.796Z,16.00
2018-05-12T06:24:29.247Z,16.00
2018-05-12T06:26:56.703Z,16.10
2018-05-12T06:29:24.161Z,16.20
2018-05-12T06:31:52.367Z,16.40
2018-05-12T06:34:19.850Z,16.30
2018-05-12T06:36:47.301Z,16.50
2018-05-12T06:39:14.756Z,16.50
2018-05-12T06:41:42.218Z,16.60
2018-05-12T06:44:09.676Z,16.60
2018-05-12T06:46:37.146Z,16.70
2018-05-12T06:49:04.585Z,16.80
2018-05-12T06:51:32.034Z,16.90
2018-05-12T06:53:59.499Z,17.00
2018-05-12T06:56:26.970Z,17.10
2018-05-12T06:58:54.437Z,17.20
2018-05-12T07:01:22.670Z,17.20
2018-05-12T07:03:50.921Z,17.20
2018-05-12T07:06:18.393Z,17.30
2018-05-12T07:08:45.836Z,17.30
2018-05-12T07:11:13.293Z,17.40
2018-05-12T07:13:40.738Z,17.50
2018-05-12T07:16:08.191Z,17.70
2018-05-12T07:18:36.394Z,17.80
2018-05-12T07:21:03.893Z,17.80
2018-05-12T07:23:31.347Z,17.90
2018-05-12T07:25:58.819Z,18.00
2018-05-12T07:28:26.291Z,17.90
2018-05-12T07:30:54.589Z,18.00
2018-05-12T07:33:22.022Z,17.90
2018-05-12T07:35:50.225Z,18.10
2018-05-12T07:38:17.675Z,18.10
2018-05-12T07:40:45.121Z,18.10
2018-05-12T07:43:12.563Z,18.20
2018-05-12T07:45:40.784Z,18.20
2018-05-12T07:48:08.289Z,18.10
2018-05-12T07:50:36.505Z,18.30
2018-05-12T07:53:03.949Z,18.30
2018-05-12T07:55:31.445Z,18.50
2018-05-12T07:57:59.478Z,18.50
2018-05-12T08:00:26.936Z,18.70
2018-05-12T08:02:54.392Z,18.80
2018-05-12T08:05:21.839Z,18.90
2018-05-12T08:07:49.288Z,19.00
2018-05-12T08:10:16.734Z,19.00
2018-05-12T08:12:45.063Z,19.10
2018-05-12T08:15:13.217Z,19.10
2018-05-12T08:17:40.677Z,19.10
2018-05-12T08:20:08.133Z,19.20
2018-05-12T08:22:35.609Z,19.10
2018-05-12T08:25:03.064Z,19.20
2018-05-12T08:27:30.758Z,19.30
2018-05-12T08:29:58.196Z,19.30
2018-05-12T08:32:25.645Z,19.40
2018-05-12T08:34:53.077Z,19.50
2018-05-12T08:37:20.550Z,19.50
2018-05-12T08:39:47.985Z,19.70
2018-05-12T08:42:15.437Z,19.70
2018-05-12T08:44:42.879Z,19.80
2018-05-12T08:47:10.349Z,19.80
2018-05-12T08:49:37.796Z,20.10
2018-05-12T08:52:05.254Z,20.20
2018-05-12T08:54:32.709Z,20.30
2018-05-12T08:57:00.920Z,20.50
2018-05-12T08:59:28.368Z,20.40
2018-05-12T09:01:55.825Z,20.40
2018-05-12T09:04:23.262Z,20.40
2018-05-12T09:06:50.720Z,20.50
2018-05-12T09:09:18.148Z,20.50
2018-05-12T09:11:46.389Z,20.50
2018-05-12T09:14:13.870Z,20.50
2018-05-12T09:16:41.361Z,20.50
2018-05-12T09:19:08.817Z,20.60
2018-05-12T09:21:36.280Z,20.90
2018-05-12T09:24:03.711Z,21.20
2018-05-12T09:26:31.917Z,21.30
2018-05-12T09:28:59.372Z,21.30
2018-05-12T09:31:26.850Z,21.30
2018-05-12T09:33:54.342Z,21.40
2018-05-12T09:36:21.816Z,21.60
2018-05-12T09:38:50.057Z,21.60
2018-05-12T09:41:17.512Z,21.60
2018-05-12T09:43:44.954Z,21.80
2018-05-12T09:46:12.407Z,22.00
2018-05-12T09:48:40.617Z,21.80
2018-05-12T09:51:08.064Z,21.70
2018-05-12T09:53:35.511Z,21.70
2018-05-12T09:56:02.970Z,21.80
2018-05-12T09:58:30.416Z,21.80
2018-05-12T10:00:57.872Z,22.00
2018-05-12T10:03:25.437Z,22.20
2018-05-12T10:05:52.822Z,22.40
2018-05-12T10:08:20.968Z,22.30
2018-05-12T10:10:48.438Z,22.10
2018-05-12T10:13:15.868Z,22.30
2018-05-12T10:15:43.319Z,22.30
2018-05-12T10:18:10.833Z,22.50
2018-05-12T10:20:39.052Z,22.70
2018-05-12T10:23:06.481Z,22.60
2018-05-12T10:25:33.936Z,22.60
2018-05-12T10:28:01.378Z,22.40
2018-05-12T10:30:29.610Z,22.30
2018-05-12T10:32:57.085Z,22.20
2018-05-12T10:35:24.542Z,22.40
2018-05-12T10:37:51.993Z,22.40
2018-05-12T10:40:19.449Z,22.40
2018-05-12T10:42:46.915Z,22.10
2018-05-12T10:45:14.369Z,22.00
2018-05-12T10:47:41.824Z,22.00
2018-05-12T10:50:09.279Z,22.20
2018-05-12T10:52:36.754Z,22.50
2018-05-12T10:55:04.196Z,22.80
2018-05-12T10:57:31.662Z,23.10
2018-05-12T10:59:59.133Z,23.40
2018-05-12T11:02:26.605Z,23.60
2018-05-12T11:04:54.042Z,23.60
2018-05-12T11:07:21.495Z,23.50
2018-05-12T11:09:49.726Z,23.60
2018-05-12T11:12:17.178Z,23.60
2018-05-12T11:14:44.663Z,23.70
2018-05-12T11:17:12.123Z,23.60
2018-05-12T11:19:39.615Z,23.70
2018-05-12T11:22:07.859Z,23.80
2018-05-12T11:24:35.310Z,23.80
2018-05-12T11:27:02.771Z,23.80
2018-05-12T11:29:30.227Z,23.90
2018-05-12T11:31:57.679Z,24.20
2018-05-12T11:34:25.115Z,24.20
2018-05-12T11:36:52.558Z,24.50
2018-05-12T11:39:20.010Z,24.60
2018-05-12T11:41:47.455Z,24.40
2018-05-12T11:44:14.913Z,24.20
2018-05-12T11:46:42.389Z,24.20
2018-05-12T11:49:09.926Z,24.40
2018-05-12T11:51:37.400Z,24.50
2018-05-12T11:54:04.914Z,24.70
2018-05-12T11:56:32.301Z,24.60
2018-05-12T11:58:59.765Z,24.50
2018-05-12T12:01:27.192Z,24.30
2018-05-12T12:03:55.417Z,24.00
2018-05-12T12:06:22.846Z,23.90
2018-05-12T12:08:50.301Z,24.20
2018-05-12T12:11:17.741Z,24.50
2018-05-12T12:13:45.987Z,24.70
2018-05-12T12:16:13.463Z,24.70
2018-05-12T12:18:41.675Z,24.50
2018-05-12T12:21:09.124Z,24.50
2018-05-12T12:23:36.562Z,24.30
2018-05-12T12:26:04.757Z,24.00
2018-05-12T12:28:32.201Z,24.00
2018-05-12T12:30:59.656Z,24.00
2018-05-12T12:33:27.245Z,23.90
2018-05-12T12:35:54.556Z,24.00
2018-05-12T12:38:22.789Z,24.30
2018-05-12T12:40:50.227Z,24.30
2018-05-12T12:43:17.726Z,24.40
2018-05-12T12:45:45.185Z,24.40
2018-05-12T12:48:12.660Z,24.40
2018-05-12T12:50:40.960Z,24.70
2018-05-12T12:53:08.432Z,24.60
2018-05-12T12:55:36.602Z,25.00
2018-05-12T12:58:04.018Z,25.50
2018-05-12T13:00:32.247Z,25.80
2018-05-12T13:02:59.702Z,25.70
2018-05-12T13:05:27.140Z,25.90
2018-05-12T13:07:54.654Z,25.70
2018-05-12T13:10:22.209Z,25.70
2018-05-12T13:12:50.450Z,25.60
2018-05-12T13:15:17.905Z,25.60
2018-05-12T13:17:45.346Z,25.80
2018-05-12T13:20:12.861Z,25.80
2018-05-12T13:22:40.303Z,25.80
2018-05-12T13:25:07.758Z,25.90
2018-05-12T13:27:35.212Z,26.00
2018-05-12T13:30:02.697Z,25.90
2018-05-12T13:32:30.910Z,26.00
2018-05-12T13:34:58.407Z,25.90
2018-05-12T13:37:25.853Z,26.20
2018-05-12T13:39:53.334Z,26.20
2018-05-12T13:42:21.547Z,25.70
2018-05-12T13:44:49.004Z,25.60
2018-05-12T13:47:16.503Z,25.80
2018-05-12T13:49:43.956Z,26.00
2018-05-12T13:52:11.441Z,26.00
2018-05-12T13:54:38.917Z,26.10
2018-05-12T13:57:07.167Z,26.00
2018-05-12T13:59:34.607Z,26.00
2018-05-12T14:02:02.148Z,26.10
2018-05-12T14:04:29.592Z,26.10
2018-05-12T14:06:57.049Z,25.80
2018-05-12T14:09:24.502Z,25.70
2018-05-12T14:11:51.962Z,25.80
2018-05-12T14:14:19.416Z,26.00
2018-05-12T14:16:46.857Z,25.90
2018-05-12T14:19:14.305Z,25.90
2018-05-12T14:21:41.781Z,26.10
2018-05-12T14:24:09.246Z,26.10
2018-05-12T14:26:36.730Z,26.10
2018-05-12T14:29:04.171Z,26.30
2018-05-12T14:31:31.627Z,26.50
2018-05-12T14:33:59.066Z,26.70
2018-05-12T14:36:26.514Z,26.70
2018-05-12T14:38:53.965Z,26.90
2018-05-12T14:41:21.428Z,26.90
2018-05-12T14:43:48.862Z,26.80
2018-05-12T14:46:17.092Z,26.50
2018-05-12T14:48:44.563Z,26.50
2018-05-12T14:51:12.017Z,26.50
2018-05-12T14:53:39.467Z,26.40
2018-05-12T14:56:06.913Z,26.50
2018-05-12T14:58:34.357Z,26.30
2018-05-12T15:01:01.914Z,26.30
2018-05-12T15:03:29.349Z,26.50
2018-05-12T15:05:57.566Z,26.50
2018-05-12T15:08:25.030Z,26.50
2018-05-12T15:10:52.463Z,26.50
2018-05-12T15:13:19.900Z,26.50
2018-05-12T15:15:47.391Z,26.60
2018-05-12T15:18:14.835Z,26.70
2018-05-12T15:20:42.375Z,26.50
2018-05-12T15:23:09.919Z,26.50
2018-05-12T15:25:38.153Z,26.50
2018-05-12T15:28:06.358Z,26.70
2018-05-12T15:30:34.606Z,26.70
2018-05-12T15:33:02.052Z,26.60
2018-05-12T15:35:29.533Z,26.60
2018-05-12T15:37:56.977Z,26.60
2018-05-12T15:40:24.433Z,26.40
2018-05-12T15:42:51.866Z,26.30
2018-05-12T15:45:19.312Z,26.10
2018-05-12T15:47:46.786Z,26.00
2018-05-12T15:50:14.833Z,26.00
2018-05-12T15:52:42.266Z,25.90
2018-05-12T15:55:10.481Z,25.50
2018-05-12T15:57:37.945Z,25.50
2018-05-12T16:00:05.399Z,25.40
2018-05-12T16:02:32.837Z,25.40
2018-05-12T16:05:00.284Z,25.70
2018-05-12T16:07:27.831Z,25.70
2018-05-12T16:09:56.013Z,25.80
2018-05-12T16:12:23.598Z,25.80
2018-05-12T16:14:51.765Z,25.90
2018-05-12T16:17:19.240Z,25.90
2018-05-12T16:19:46.695Z,26.10
2018-05-12T16:22:14.126Z,25.90
2018-05-12T16:24:41.585Z,25.90
2018-05-12T16:27:09.038Z,26.20
2018-05-12T16:29:36.489Z,26.30
2018-05-12T16:32:03.953Z,26.50
2018-05-12T16:34:31.394Z,26.30
2018-05-12T16:36:58.853Z,26.10
2018-05-12T16:39:26.290Z,25.90
2018-05-12T16:41:54.568Z,25.90
2018-05-12T16:44:22.073Z,25.80
2018-05-12T16:46:49.514Z,25.90
2018-05-12T16:49:16.961Z,25.80
2018-05-12T16:51:44.442Z,25.60
2018-05-12T16:54:11.893Z,25.40
2018-05-12T16:56:39.345Z,25.20
2018-05-12T16:59:06.859Z,25.00
2018-05-12T17:01:34.243Z,24.70
2018-05-12T17:04:01.702Z,24.50
2018-05-12T17:06:29.240Z,24.40
2018-05-12T17:08:56.637Z,24.30
2018-05-12T17:11:24.097Z,24.30
2018-05-12T17:13:51.555Z,24.40
2018-05-12T17:16:19.001Z,24.30
2018-05-12T17:18:46.439Z,24.30
2018-05-12T17:21:13.898Z,24.30
2018-05-12T17:23:41.342Z,24.40
2018-05-12T17:26:09.550Z,24.50
2018-05-12T17:28:36.990Z,24.40
2018-05-12T17:31:04.521Z,24.30
2018-05-12T17:33:32.739Z,24.20
2018-05-12T17:36:00.205Z,24.20
2018-05-12T17:38:27.656Z,24.00
2018-05-12T17:40:55.101Z,24.00
2018-05-12T17:43:22.552Z,23.90
2018-05-12T17:45:50.008Z,23.90
2018-05-12T17:48:17.469Z,23.80
2018-05-12T17:50:44.905Z,23.70
2018-05-12T17:53:12.374Z,23.60
2018-05-12T17:55:39.866Z,23.50
2018-05-12T17:58:07.361Z,23.30
2018-05-12T18:00:35.609Z,23.10
2018-05-12T18:03:03.069Z,23.00
2018-05-12T18:05:30.521Z,23.00
2018-05-12T18:07:58.251Z,22.80
2018-05-12T18:10:25.711Z,22.80
2018-05-12T18:12:53.160Z,22.60
2018-05-12T18:15:20.604Z,22.60
2018-05-12T18:17:48.080Z,22.50
2018-05-12T18:20:15.550Z,22.40
2018-05-12T18:22:42.997Z,22.30
2018-05-12T18:25:10.475Z,22.20
2018-05-12T18:27:37.921Z,22.20
2018-05-12T18:30:05.385Z,22.10
2018-05-12T18:32:32.853Z,22.00
2018-05-12T18:35:00.387Z,21.90
2018-05-12T18:37:27.830Z,21.80
2018-05-12T18:39:55.281Z,21.70
2018-05-12T18:42:22.735Z,21.60
2018-05-12T18:44:50.214Z,21.50
2018-05-12T18:47:17.673Z,21.40
2018-05-12T18:49:45.277Z,21.30
2018-05-12T18:54:46.710Z,21.20
2018-05-12T18:57:14.190Z,21.10
2018-05-12T18:59:41.638Z,21.00
2018-05-12T19:02:09.121Z,20.90
2018-05-12T19:04:36.566Z,20.90
2018-05-12T19:07:04.018Z,20.80
2018-05-12T19:09:31.479Z,20.70
2018-05-12T19:11:58.993Z,20.70
2018-05-12T19:14:26.449Z,20.60
2018-05-12T19:16:53.970Z,20.60
2018-05-12T19:19:21.424Z,20.50
2018-05-12T19:21:49.648Z,20.40
2018-05-12T19:24:17.101Z,20.30
2018-05-12T19:26:44.709Z,20.30
2018-05-12T19:29:12.189Z,20.30
2018-05-12T19:31:40.412Z,20.10
2018-05-12T19:34:07.877Z,20.10
2018-05-12T19:36:36.153Z,20.10
2018-05-12T19:39:04.373Z,20.00
2018-05-12T19:41:31.805Z,20.00
2018-05-12T19:43:59.273Z,20.00
2018-05-12T19:46:26.720Z,20.00
2018-05-12T19:48:54.238Z,19.90
2018-05-12T19:51:21.709Z,19.80
2018-05-12T19:53:49.149Z,19.80
2018-05-12T19:56:16.589Z,19.80
2018-05-12T19:58:44.060Z,19.70
2018-05-12T20:01:11.522Z,19.70
2018-05-12T20:03:38.973Z,19.70
2018-05-12T20:06:06.422Z,19.60
2018-05-12T20:08:33.964Z,19.50
2018-05-12T20:11:01.409Z,19.50
2018-05-12T20:13:29.658Z,19.40
2018-05-12T20:15:57.249Z,19.40
2018-05-12T20:18:24.694Z,19.40
2018-05-12T20:20:52.918Z,19.30
2018-05-12T20:23:20.407Z,19.30
2018-05-12T20:25:47.902Z,19.30
2018-05-12T20:28:16.129Z,19.20
2018-05-12T20:30:43.681Z,19.10
2018-05-12T20:33:11.152Z,19.10
2018-05-12T20:35:38.648Z,19.10
2018-05-12T20:38:06.172Z,19.00
2018-05-12T20:40:33.647Z,19.00
2018-05-12T20:43:01.095Z,18.90
2018-05-12T20:45:28.556Z,18.80
2018-05-12T20:47:56.006Z,18.80
2018-05-12T20:50:24.220Z,18.70
2018-05-12T20:52:51.703Z,18.70
2018-05-12T20:55:19.193Z,18.70
2018-05-12T20:57:46.698Z,18.70
2018-05-12T21:00:14.163Z,18.60
2018-05-12T21:02:41.602Z,18.60
2018-05-12T21:05:09.104Z,18.50
2018-05-12T21:07:36.588Z,18.50
2018-05-12T21:10:05.813Z,18.40
2018-05-12T21:12:33.262Z,18.40
2018-05-12T21:15:00.718Z,18.40
2018-05-12T21:17:28.176Z,18.40
2018-05-12T21:19:55.634Z,18.30
2018-05-12T21:22:23.104Z,18.20
2018-05-12T21:24:50.617Z,18.20
2018-05-12T21:27:18.081Z,18.20
2018-05-12T21:29:45.598Z,18.10
2018-05-12T21:32:13.093Z,18.10
2018-05-12T21:34:41.398Z,18.00
2018-05-12T21:37:08.855Z,17.90
2018-05-12T21:39:36.313Z,18.00
2018-05-12T21:42:03.770Z,17.90
2018-05-12T21:44:31.233Z,17.90
2018-05-12T21:46:58.681Z,17.80
2018-05-12T21:49:26.141Z,17.80
2018-05-12T21:51:53.597Z,17.70
2018-05-12T21:54:21.829Z,17.70
2018-05-12T21:56:49.279Z,17.60
2018-05-12T21:59:16.761Z,17.60
2018-05-12T22:01:45.033Z,17.60
2018-05-12T22:04:13.262Z,17.50
2018-05-12T22:06:40.709Z,17.50
2018-05-12T22:09:08.166Z,17.50
2018-05-12T22:11:35.611Z,17.50
2018-05-12T22:14:03.092Z,17.40
2018-05-12T22:16:30.550Z,17.40
2018-05-12T22:18:58.097Z,17.40
2018-05-12T22:21:25.553Z,17.40
2018-05-12T22:23:53.047Z,17.30
2018-05-12T22:26:20.578Z,17.30
2018-05-12T22:28:48.069Z,17.30
2018-05-12T22:31:15.534Z,17.20
2018-05-12T22:33:42.982Z,17.20
2018-05-12T22:36:10.498Z,17.10
2018-05-12T22:38:37.953Z,17.10
2018-05-12T22:41:05.486Z,17.10
2018-05-12T22:43:33.754Z,17.10
2018-05-12T22:46:01.989Z,17.00
2018-05-12T22:48:29.453Z,17.00
2018-05-12T22:50:56.937Z,17.00
2018-05-12T22:53:24.493Z,17.00
2018-05-12T22:55:51.952Z,17.00
2018-05-12T22:58:19.399Z,17.00
2018-05-12T23:00:46.855Z,16.90
2018-05-12T23:03:14.325Z,16.90
2018-05-12T23:05:41.782Z,16.90
2018-05-12T23:08:09.238Z,16.90
2018-05-12T23:10:36.695Z,16.90
2018-05-12T23:13:04.185Z,16.80
2018-05-12T23:15:31.622Z,16.80
2018-05-12T23:17:59.066Z,16.80
2018-05-12T23:20:27.315Z,16.80
2018-05-12T23:22:54.772Z,16.70
2018-05-12T23:25:22.227Z,16.80
2018-05-12T23:27:49.676Z,16.70
2018-05-12T23:30:17.143Z,16.70
2018-05-12T23:32:44.597Z,16.70
2018-05-12T23:35:12.076Z,16.70
2018-05-12T23:37:39.529Z,16.60
2018-05-12T23:40:06.994Z,16.60
2018-05-12T23:42:35.586Z,16.60
2018-05-12T23:45:03.038Z,16.50
2018-05-12T23:47:32.780Z,16.70
2018-05-12T23:50:00.229Z,16.60
2018-05-12T23:52:27.676Z,16.60
2018-05-12T23:54:55.905Z,16.60
2018-05-12T23:57:24.130Z,16.60
2018-05-12T23:59:51.611Z,16.50
